createdAt,value
2022-11-03T00:01:24.768Z,10.44
2022-11-03T00:04:17.738Z,10.43
2022-11-03T00:07:07.228Z,10.38
2022-11-03T00:09:56.647Z,10.35
2022-11-03T00:12:46.163Z,10.34
2022-11-03T00:15:35.503Z,10.38
2022-11-03T00:18:25.042Z,10.31
2022-11-03T00:21:16.143Z,10.34
2022-11-03T00:24:06.444Z,10.37
2022-11-03T00:26:55.842Z,10.29
2022-11-03T00:29:45.343Z,10.32
2022-11-03T00:32:35.130Z,10.30
2022-11-03T00:35:24.685Z,10.27
2022-11-03T00:38:15.877Z,10.25
2022-11-03T00:41:07.186Z,10.24
2022-11-03T00:43:57.315Z,10.19
2022-11-03T00:46:47.046Z,10.13
2022-11-03T00:49:36.517Z,10.21
2022-11-03T00:52:25.858Z,10.20
2022-11-03T00:55:16.663Z,10.11
2022-11-03T00:58:06.026Z,10.09
2022-11-03T01:01:02.600Z,10.13
2022-11-03T01:04:08.263Z,10.13
2022-11-03T01:07:00.443Z,10.04
2022-11-03T01:09:49.853Z,10.10
2022-11-03T01:12:40.605Z,10.12
2022-11-03T01:15:29.976Z,10.12
2022-11-03T01:18:19.392Z,10.09
2022-11-03T01:21:08.732Z,10.07
2022-11-03T01:23:58.111Z,10.09
2022-11-03T01:26:47.557Z,10.02
2022-11-03T01:29:38.257Z,10.07
2022-11-03T01:32:27.737Z,9.98
2022-11-03T01:35:17.458Z,9.98
2022-11-03T01:38:07.020Z,9.85
2022-11-03T01:40:56.330Z,9.88
2022-11-03T01:43:53.230Z,9.94
2022-11-03T01:46:49.299Z,9.91
2022-11-03T01:49:46.386Z,9.95
2022-11-03T01:52:40.173Z,9.84
2022-11-03T01:55:35.805Z,9.91
2022-11-03T01:58:30.075Z,9.94
2022-11-03T02:01:20.044Z,9.94
2022-11-03T02:04:18.250Z,9.99
2022-11-03T02:07:18.610Z,9.93
2022-11-03T02:10:09.431Z,9.94
2022-11-03T02:12:59.068Z,9.93
2022-11-03T02:15:50.452Z,9.92
2022-11-03T02:18:41.468Z,9.87
2022-11-03T02:21:39.516Z,9.82
2022-11-03T02:24:40.189Z,9.85
2022-11-03T02:27:30.981Z,9.92
2022-11-03T02:30:20.259Z,9.93
2022-11-03T02:33:22.843Z,9.94
2022-11-03T02:36:19.486Z,9.92
2022-11-03T02:39:14.967Z,9.86
2022-11-03T02:42:06.119Z,9.85
2022-11-03T02:45:01.435Z,9.78
2022-11-03T02:47:52.233Z,9.82
2022-11-03T02:50:41.457Z,9.78
2022-11-03T02:53:32.390Z,9.70
2022-11-03T02:56:26.169Z,9.74
2022-11-03T02:59:20.854Z,9.67
2022-11-03T03:02:18.219Z,9.72
2022-11-03T03:05:12.444Z,9.67
2022-11-03T03:08:07.327Z,9.62
2022-11-03T03:10:58.813Z,9.61
2022-11-03T03:13:49.148Z,9.63
2022-11-03T03:16:50.281Z,9.66
2022-11-03T03:19:51.729Z,9.66
2022-11-03T03:22:45.799Z,9.72
2022-11-03T03:25:40.402Z,9.75
2022-11-03T03:28:38.189Z,9.78
2022-11-03T03:31:30.720Z,9.77
2022-11-03T03:34:34.712Z,9.72
2022-11-03T03:37:30.453Z,9.82
2022-11-03T03:40:26.084Z,9.78
2022-11-03T03:43:16.878Z,9.84
2022-11-03T03:46:11.486Z,9.84
2022-11-03T03:49:00.826Z,9.82
2022-11-03T03:51:51.660Z,9.79
2022-11-03T03:54:42.588Z,9.65
2022-11-03T03:57:33.568Z,9.65
2022-11-03T04:00:23.136Z,9.64
2022-11-03T04:03:18.846Z,9.67
2022-11-03T04:06:09.880Z,9.58
2022-11-03T04:08:59.260Z,9.57
2022-11-03T04:12:07.494Z,9.53
2022-11-03T04:15:14.396Z,9.64
2022-11-03T04:18:21.290Z,9.69
2022-11-03T04:21:31.506Z,9.66
2022-11-03T04:24:21.193Z,9.68
2022-11-03T04:27:29.284Z,9.55
2022-11-03T04:30:22.240Z,9.50
2022-11-03T04:33:16.849Z,9.48
2022-11-03T04:36:16.713Z,9.53
2022-11-03T04:39:20.011Z,9.53
2022-11-03T04:42:17.231Z,9.52
2022-11-03T04:45:22.893Z,9.61
2022-11-03T04:48:15.804Z,9.55
2022-11-03T04:51:16.670Z,9.51
2022-11-03T04:54:15.644Z,9.49
2022-11-03T04:57:12.425Z,9.51
2022-11-03T05:00:03.470Z,9.33
2022-11-03T05:02:56.090Z,9.45
2022-11-03T05:05:46.518Z,9.41
2022-11-03T05:08:35.930Z,9.42
2022-11-03T05:11:33.542Z,9.46
2022-11-03T05:14:26.018Z,9.48
2022-11-03T05:17:25.549Z,9.44
2022-11-03T05:20:35.795Z,9.41
2022-11-03T05:23:27.245Z,9.46
2022-11-03T05:26:21.861Z,9.48
2022-11-03T05:29:17.002Z,9.45
2022-11-03T05:32:16.009Z,9.46
2022-11-03T05:35:20.429Z,9.46
2022-11-03T05:38:16.131Z,9.46
2022-11-03T05:41:14.523Z,9.42
2022-11-03T05:44:18.173Z,9.42
2022-11-03T05:47:15.676Z,9.43
2022-11-03T05:50:20.603Z,9.45
2022-11-03T05:53:28.036Z,9.42
2022-11-03T05:56:22.624Z,9.36
2022-11-03T05:59:15.139Z,9.35
2022-11-03T06:02:12.699Z,9.31
2022-11-03T06:05:02.172Z,9.29
2022-11-03T06:07:57.098Z,9.21
2022-11-03T06:10:51.229Z,9.14
2022-11-03T06:13:40.902Z,9.14
2022-11-03T06:16:42.854Z,9.06
2022-11-03T06:19:39.376Z,9.06
2022-11-03T06:22:31.833Z,9.05
2022-11-03T06:25:31.849Z,9.04
2022-11-03T06:28:26.863Z,9.04
2022-11-03T06:31:23.581Z,9.03
2022-11-03T06:34:34.936Z,9.04
2022-11-03T06:37:27.372Z,9.16
2022-11-03T06:40:37.256Z,9.21
2022-11-03T06:43:32.903Z,9.22
2022-11-03T06:46:25.011Z,9.22
2022-11-03T06:49:30.104Z,9.31
2022-11-03T06:52:29.899Z,9.35
2022-11-03T06:55:28.128Z,9.28
2022-11-03T06:58:30.125Z,9.32
2022-11-03T07:01:24.157Z,9.33
2022-11-03T07:04:20.263Z,9.28
2022-11-03T07:07:10.368Z,9.30
2022-11-03T07:09:59.900Z,9.24
2022-11-03T07:12:49.380Z,9.23
2022-11-03T07:15:40.296Z,9.28
2022-11-03T07:18:35.404Z,9.20
2022-11-03T07:21:37.543Z,9.24
2022-11-03T07:24:31.229Z,9.18
2022-11-03T07:27:26.619Z,9.15
2022-11-03T07:30:22.161Z,9.17
2022-11-03T07:33:20.005Z,9.15
2022-11-03T07:36:17.178Z,9.15
2022-11-03T07:39:14.200Z,9.21
2022-11-03T07:42:12.853Z,9.21
2022-11-03T07:45:02.366Z,9.24
2022-11-03T07:47:51.775Z,9.23
2022-11-03T07:50:42.707Z,9.30
2022-11-03T07:53:40.809Z,9.32
2022-11-03T07:56:36.868Z,9.30
2022-11-03T07:59:32.418Z,9.33
2022-11-03T08:02:32.743Z,9.27
2022-11-03T08:05:22.461Z,9.37
2022-11-03T08:08:13.890Z,9.33
2022-11-03T08:11:03.412Z,9.34
2022-11-03T08:13:53.772Z,9.35
2022-11-03T08:16:43.135Z,9.40
2022-11-03T08:19:32.708Z,9.42
2022-11-03T08:22:23.567Z,9.39
2022-11-03T08:25:14.642Z,9.43
2022-11-03T08:28:04.316Z,9.51
2022-11-03T08:30:54.031Z,9.50
2022-11-03T08:33:43.949Z,9.55
2022-11-03T08:36:33.330Z,9.65
2022-11-03T08:39:23.042Z,9.71
2022-11-03T08:42:13.790Z,9.73
2022-11-03T08:45:03.220Z,9.69
2022-11-03T08:47:52.678Z,9.70
2022-11-03T08:50:42.080Z,9.85
2022-11-03T08:53:31.742Z,9.88
2022-11-03T08:56:22.510Z,9.99
2022-11-03T08:59:13.734Z,10.02
2022-11-03T09:02:03.235Z,10.07
2022-11-03T09:04:52.706Z,10.11
2022-11-03T09:10:52.465Z,10.27
2022-11-03T09:13:42.016Z,10.27
2022-11-03T09:16:32.908Z,10.36
2022-11-03T09:19:22.228Z,10.36
2022-11-03T09:22:11.550Z,10.44
2022-11-03T09:25:01.058Z,10.50
2022-11-03T09:27:50.551Z,10.55
2022-11-03T09:30:40.251Z,10.66
2022-11-03T09:33:31.704Z,10.69
2022-11-03T09:36:21.205Z,10.73
2022-11-03T09:39:10.703Z,10.70
2022-11-03T09:42:03.755Z,10.77
2022-11-03T09:44:54.838Z,10.82
2022-11-03T09:47:47.935Z,10.87
2022-11-03T09:50:38.877Z,10.93
2022-11-03T09:53:28.375Z,10.99
2022-11-03T09:56:23.062Z,10.98
2022-11-03T09:59:18.518Z,11.12
2022-11-03T10:02:26.464Z,11.12
2022-11-03T10:05:23.750Z,11.25
2022-11-03T10:08:23.562Z,11.36
2022-11-03T10:11:13.813Z,11.38
2022-11-03T10:14:03.635Z,11.44
2022-11-03T10:17:00.552Z,11.47
2022-11-03T10:19:54.185Z,11.54
2022-11-03T10:22:46.196Z,11.60
2022-11-03T10:25:42.703Z,11.60
2022-11-03T10:28:32.032Z,11.70
2022-11-03T10:31:22.855Z,11.71
2022-11-03T10:34:29.393Z,11.80
2022-11-03T10:37:23.855Z,11.93
2022-11-03T10:40:54.017Z,12.02
2022-11-03T10:43:45.424Z,12.09
2022-11-03T10:46:51.733Z,12.19
2022-11-03T10:49:43.918Z,12.28
2022-11-03T10:55:28.984Z,12.97
2022-11-03T10:58:20.132Z,14.00
2022-11-03T11:01:12.889Z,15.06
2022-11-03T11:04:02.378Z,16.20
2022-11-03T11:06:52.742Z,17.18
2022-11-03T11:09:42.247Z,18.11
2022-11-03T11:12:31.862Z,18.99
2022-11-03T11:15:44.746Z,19.94
2022-11-03T11:19:11.677Z,20.75
2022-11-03T11:22:04.744Z,21.28
2022-11-03T11:25:02.773Z,21.63
2022-11-03T11:28:19.309Z,22.07
2022-11-03T11:31:32.293Z,22.30
2022-11-03T11:34:40.843Z,22.28
2022-11-03T11:37:39.039Z,22.41
2022-11-03T11:40:52.015Z,22.27
2022-11-03T11:43:41.394Z,22.10
2022-11-03T11:46:51.409Z,21.78
2022-11-03T11:49:40.785Z,21.64
2022-11-03T11:52:31.473Z,21.30
2022-11-03T11:55:27.999Z,21.05
2022-11-03T11:58:28.083Z,20.65
2022-11-03T12:01:28.526Z,20.38
2022-11-03T12:04:24.288Z,19.97
2022-11-03T12:07:16.487Z,19.45
2022-11-03T12:10:09.986Z,18.73
2022-11-03T12:13:01.919Z,18.21
2022-11-03T12:15:56.524Z,17.71
2022-11-03T12:18:50.359Z,17.25
2022-11-03T12:21:50.163Z,16.73
2022-11-03T12:24:54.041Z,16.26
2022-11-03T12:27:44.927Z,15.87
2022-11-03T12:30:39.505Z,15.61
2022-11-03T12:33:30.276Z,15.36
2022-11-03T12:36:19.649Z,15.09
2022-11-03T12:39:10.526Z,14.88
2022-11-03T12:41:59.948Z,14.73
2022-11-03T12:44:49.563Z,14.63
2022-11-03T12:47:38.854Z,14.53
2022-11-03T12:50:28.533Z,14.48
2022-11-03T12:53:17.858Z,14.42
2022-11-03T12:56:10.855Z,14.37
2022-11-03T12:59:00.143Z,14.36
2022-11-03T13:01:49.551Z,14.31
2022-11-03T13:04:39.272Z,14.17
2022-11-03T13:07:34.380Z,14.23
2022-11-03T13:10:24.280Z,14.21
2022-11-03T13:13:15.020Z,14.26
2022-11-03T13:16:04.958Z,14.29
2022-11-03T13:18:54.526Z,14.37
2022-11-03T13:21:43.888Z,14.53
2022-11-03T13:24:33.379Z,14.66
2022-11-03T13:27:23.129Z,14.76
2022-11-03T13:30:15.118Z,14.83
2022-11-03T13:33:04.736Z,14.75
2022-11-03T13:35:54.940Z,14.66
2022-11-03T13:38:44.562Z,14.65
2022-11-03T13:41:33.889Z,14.60
2022-11-03T13:44:23.237Z,14.60
2022-11-03T13:47:14.076Z,14.50
2022-11-03T13:50:19.460Z,14.42
2022-11-03T13:56:21.838Z,14.26
2022-11-03T13:59:28.206Z,14.19
2022-11-03T14:05:28.785Z,14.11
2022-11-03T14:08:18.078Z,14.04
2022-11-03T14:11:21.405Z,14.00
2022-11-03T14:14:10.424Z,13.90
2022-11-03T14:17:00.562Z,13.88
2022-11-03T14:19:52.827Z,13.85
2022-11-03T14:22:43.566Z,13.83
2022-11-03T14:25:32.975Z,13.75
2022-11-03T14:28:26.097Z,13.79
2022-11-03T14:31:15.851Z,13.75
2022-11-03T14:34:05.444Z,13.74
2022-11-03T14:36:56.541Z,13.68
2022-11-03T14:39:45.902Z,13.72
2022-11-03T14:42:34.381Z,13.70
2022-11-03T14:45:24.191Z,13.62
2022-11-03T14:48:13.742Z,13.71
2022-11-03T14:51:03.113Z,13.68
2022-11-03T14:53:54.004Z,13.71
2022-11-03T14:56:43.457Z,13.72
2022-11-03T14:59:33.484Z,13.70
2022-11-03T15:02:23.007Z,13.70
2022-11-03T15:05:32.564Z,13.67
2022-11-03T15:08:23.624Z,13.65
2022-11-03T15:11:14.732Z,13.59
2022-11-03T15:14:04.344Z,13.56
2022-11-03T15:16:53.845Z,13.56
2022-11-03T15:19:43.694Z,13.56
2022-11-03T15:25:42.607Z,13.51
2022-11-03T15:28:33.323Z,13.49
2022-11-03T15:31:23.783Z,13.48
2022-11-03T15:34:13.523Z,13.48
2022-11-03T15:37:03.137Z,13.46
2022-11-03T15:39:57.195Z,13.34
2022-11-03T15:42:48.886Z,13.24
2022-11-03T15:45:40.674Z,13.18
2022-11-03T15:48:34.387Z,13.15
2022-11-03T15:51:25.796Z,13.13
2022-11-03T15:54:15.410Z,13.10
2022-11-03T15:57:05.088Z,13.07
2022-11-03T15:59:57.769Z,13.06
2022-11-03T16:02:49.260Z,12.98
2022-11-03T16:05:38.664Z,12.93
2022-11-03T16:08:28.086Z,12.86
2022-11-03T16:11:17.446Z,12.75
2022-11-03T16:14:06.815Z,12.77
2022-11-03T16:16:56.852Z,12.71
2022-11-03T16:19:47.942Z,12.62
2022-11-03T16:22:37.708Z,12.63
2022-11-03T16:25:27.077Z,12.60
2022-11-03T16:28:16.356Z,12.56
2022-11-03T16:31:05.791Z,12.58
2022-11-03T16:33:55.418Z,12.58
2022-11-03T16:36:46.719Z,12.59
2022-11-03T16:39:36.125Z,12.57
2022-11-03T16:42:25.378Z,12.52
2022-11-03T16:45:19.690Z,12.51
2022-11-03T16:48:09.353Z,12.48
2022-11-03T16:50:59.769Z,12.46
2022-11-03T16:53:52.876Z,12.45
2022-11-03T16:56:42.562Z,12.41
2022-11-03T16:59:31.764Z,12.38
2022-11-03T17:02:21.452Z,12.38
2022-11-03T17:05:12.627Z,12.33
2022-11-03T17:08:02.235Z,12.38
2022-11-03T17:10:52.991Z,12.29
2022-11-03T17:13:42.589Z,12.36
2022-11-03T17:16:32.031Z,12.35
2022-11-03T17:19:21.337Z,12.32
2022-11-03T17:22:10.966Z,12.32
2022-11-03T17:25:02.145Z,12.31
2022-11-03T17:27:55.649Z,12.32
2022-11-03T17:30:45.504Z,12.31
2022-11-03T17:33:35.310Z,12.32
2022-11-03T17:36:25.199Z,12.26
2022-11-03T17:39:18.032Z,12.18
2022-11-03T17:42:18.268Z,12.08
2022-11-03T17:45:14.134Z,11.99
2022-11-03T17:48:03.504Z,11.94
2022-11-03T17:50:55.776Z,11.87
2022-11-03T17:53:46.709Z,11.76
2022-11-03T17:56:36.606Z,11.74
2022-11-03T17:59:25.909Z,11.70
2022-11-03T18:02:19.197Z,11.63
2022-11-03T18:05:23.108Z,11.57
2022-11-03T18:08:15.660Z,11.53
2022-11-03T18:11:06.582Z,11.47
2022-11-03T18:13:54.862Z,11.44
2022-11-03T18:16:44.503Z,11.36
2022-11-03T18:19:35.529Z,11.38
2022-11-03T18:22:25.340Z,11.36
2022-11-03T18:25:15.987Z,11.38
2022-11-03T18:28:06.156Z,11.40
2022-11-03T18:30:58.916Z,11.35
2022-11-03T18:33:48.693Z,11.43
2022-11-03T18:36:39.747Z,11.43
2022-11-03T18:39:30.108Z,11.43
2022-11-03T18:42:19.518Z,11.43
2022-11-03T18:45:14.541Z,11.39
2022-11-03T18:48:03.850Z,11.40
2022-11-03T18:50:55.373Z,11.33
2022-11-03T18:53:46.616Z,11.34
2022-11-03T18:56:38.249Z,11.30
2022-11-03T18:59:32.032Z,11.31
2022-11-03T19:02:25.536Z,11.25
2022-11-03T19:05:15.961Z,11.22
2022-11-03T19:08:06.181Z,11.22
2022-11-03T19:11:03.892Z,11.14
2022-11-03T19:13:53.831Z,11.13
2022-11-03T19:17:02.028Z,11.06
2022-11-03T19:19:52.866Z,11.02
2022-11-03T19:22:42.792Z,10.90
2022-11-03T19:25:32.722Z,10.90
2022-11-03T19:28:23.859Z,10.89
2022-11-03T19:31:24.415Z,10.90
2022-11-03T19:34:18.423Z,10.80
2022-11-03T19:37:08.275Z,10.82
2022-11-03T19:39:58.277Z,10.79
2022-11-03T19:42:48.898Z,10.75
2022-11-03T19:45:41.443Z,10.70
2022-11-03T19:48:35.761Z,10.64
2022-11-03T19:51:26.013Z,10.60
2022-11-03T19:54:19.599Z,10.57
2022-11-03T19:57:13.283Z,10.55
2022-11-03T20:00:03.779Z,10.52
2022-11-03T20:02:58.576Z,10.47
2022-11-03T20:05:49.991Z,10.42
2022-11-03T20:08:40.095Z,10.36
2022-11-03T20:11:29.789Z,10.35
2022-11-03T20:14:26.351Z,10.29
2022-11-03T20:17:21.573Z,10.27
2022-11-03T20:20:16.470Z,10.24
2022-11-03T20:23:07.893Z,10.21
2022-11-03T20:25:57.825Z,10.20
2022-11-03T20:28:47.570Z,10.14
2022-11-03T20:31:37.648Z,10.16
2022-11-03T20:34:27.360Z,10.19
2022-11-03T20:37:21.677Z,10.17
2022-11-03T20:40:17.311Z,10.14
2022-11-03T20:43:07.984Z,10.12
2022-11-03T20:45:58.066Z,10.08
2022-11-03T20:48:48.008Z,10.05
2022-11-03T20:51:42.361Z,10.01
2022-11-03T20:54:33.655Z,9.97
2022-11-03T20:57:23.493Z,9.94
2022-11-03T21:00:17.015Z,9.92
2022-11-03T21:03:45.270Z,9.89
2022-11-03T21:06:33.860Z,9.84
2022-11-03T21:09:24.028Z,9.79
2022-11-03T21:12:15.828Z,9.73
2022-11-03T21:15:26.706Z,9.62
2022-11-03T21:18:37.623Z,9.73
2022-11-03T21:21:27.333Z,9.68
2022-11-03T21:24:18.338Z,9.63
2022-11-03T21:27:08.808Z,9.56
2022-11-03T21:30:00.422Z,9.55
2022-11-03T21:32:51.178Z,9.45
2022-11-03T21:35:44.356Z,9.43
2022-11-03T21:38:34.017Z,9.33
2022-11-03T21:41:46.571Z,9.35
2022-11-03T21:44:36.395Z,9.36
2022-11-03T21:47:27.827Z,9.32
2022-11-03T21:50:16.491Z,9.29
2022-11-03T21:53:07.312Z,9.20
2022-11-03T21:55:57.654Z,9.20
2022-11-03T21:58:47.022Z,9.16
2022-11-03T22:01:36.708Z,9.08
2022-11-03T22:04:27.763Z,9.07
2022-11-03T22:07:17.506Z,8.99
2022-11-03T22:10:08.180Z,8.99
2022-11-03T22:12:57.591Z,8.95
2022-11-03T22:16:04.558Z,8.91
2022-11-03T22:19:13.852Z,8.87
2022-11-03T22:22:24.928Z,8.80
2022-11-03T22:25:32.366Z,8.79
2022-11-03T22:28:22.057Z,8.78
2022-11-03T22:31:29.112Z,8.73
2022-11-03T22:34:36.078Z,8.72
2022-11-03T22:37:26.839Z,8.71
2022-11-03T22:40:33.854Z,8.67
2022-11-03T22:43:41.608Z,8.58
2022-11-03T22:46:31.647Z,8.56
2022-11-03T22:49:21.007Z,8.54
2022-11-03T22:52:12.233Z,8.50
2022-11-03T22:55:02.207Z,8.49
2022-11-03T22:57:51.896Z,8.45
2022-11-03T23:00:41.878Z,8.40
2022-11-03T23:03:33.761Z,8.35
2022-11-03T23:06:25.430Z,8.37
2022-11-03T23:09:14.806Z,8.32
2022-11-03T23:12:06.477Z,8.29
2022-11-03T23:15:13.353Z,8.25
2022-11-03T23:18:20.784Z,8.23
2022-11-03T23:21:10.371Z,8.19
2022-11-03T23:24:17.891Z,8.18
2022-11-03T23:27:10.318Z,8.16
2022-11-03T23:29:59.816Z,8.14
2022-11-03T23:32:49.175Z,8.12
2022-11-03T23:35:40.310Z,8.08
2022-11-03T23:38:32.097Z,8.04
2022-11-03T23:41:21.729Z,8.05
2022-11-03T23:44:13.530Z,8.05
2022-11-03T23:47:26.083Z,8.09
2022-11-03T23:50:15.577Z,8.03
2022-11-03T23:53:05.051Z,8.06
2022-11-03T23:56:08.293Z,8.01
2022-11-03T23:58:57.774Z,8.01
